createdAt,value
2023-03-24T00:01:53.893Z,14.52
2023-03-24T00:04:21.917Z,14.51
2023-03-24T00:06:49.628Z,14.51
2023-03-24T00:09:17.290Z,14.50
2023-03-24T00:11:44.947Z,14.50
2023-03-24T00:14:12.717Z,14.49
2023-03-24T00:16:43.095Z,14.48
2023-03-24T00:19:11.010Z,14.47
2023-03-24T00:21:38.768Z,14.47
2023-03-24T00:24:07.985Z,14.44
2023-03-24T00:26:37.775Z,14.42
2023-03-24T00:29:05.439Z,14.41
2023-03-24T00:31:33.241Z,14.40
2023-03-24T00:34:03.127Z,14.37
2023-03-24T00:36:30.886Z,14.36
2023-03-24T00:38:58.649Z,14.35
2023-03-24T00:41:27.752Z,14.33
2023-03-24T00:43:55.416Z,14.33
2023-03-24T00:46:29.327Z,14.31
2023-03-24T00:49:03.847Z,14.30
2023-03-24T00:51:31.717Z,14.29
2023-03-24T00:53:59.586Z,14.28
2023-03-24T00:56:27.389Z,14.27
2023-03-24T00:58:57.969Z,14.26
2023-03-24T01:01:25.734Z,14.24
2023-03-24T01:03:53.709Z,14.24
2023-03-24T01:06:23.611Z,14.23
2023-03-24T01:08:54.061Z,14.22
2023-03-24T01:11:22.618Z,14.21
2023-03-24T01:13:50.383Z,14.21
2023-03-24T01:16:18.398Z,14.21
2023-03-24T01:18:46.218Z,14.20
2023-03-24T01:21:14.593Z,14.19
2023-03-24T01:23:42.261Z,14.19
2023-03-24T01:26:10.024Z,14.18
2023-03-24T01:28:41.197Z,14.18
2023-03-24T01:31:09.244Z,14.18
2023-03-24T01:33:37.209Z,14.18
2023-03-24T01:36:04.986Z,14.18
2023-03-24T01:38:32.739Z,14.19
2023-03-24T01:41:00.397Z,14.19
2023-03-24T01:43:28.137Z,14.18
2023-03-24T01:45:56.163Z,14.19
2023-03-24T01:48:23.997Z,14.18
2023-03-24T01:50:51.761Z,14.19
2023-03-24T01:53:19.422Z,14.20
2023-03-24T01:55:47.083Z,14.20
2023-03-24T01:58:15.161Z,14.20
2023-03-24T02:00:43.001Z,14.19
2023-03-24T02:03:10.992Z,14.19
2023-03-24T02:05:38.660Z,14.19
2023-03-24T02:08:06.416Z,14.20
2023-03-24T02:10:34.106Z,14.19
2023-03-24T02:13:01.847Z,14.19
2023-03-24T02:15:29.609Z,14.17
2023-03-24T02:17:57.435Z,14.17
2023-03-24T02:20:25.446Z,14.18
2023-03-24T02:22:53.207Z,14.17
2023-03-24T02:25:21.806Z,14.18
2023-03-24T02:27:49.565Z,14.18
2023-03-24T02:30:17.321Z,14.17
2023-03-24T02:32:45.006Z,14.17
2023-03-24T02:35:12.649Z,14.16
2023-03-24T02:37:40.819Z,14.15
2023-03-24T02:40:08.584Z,14.16
2023-03-24T02:42:36.244Z,14.15
2023-03-24T02:45:05.030Z,14.14
2023-03-24T02:47:32.736Z,14.14
2023-03-24T02:50:00.566Z,14.14
2023-03-24T02:52:28.321Z,14.12
2023-03-24T02:54:55.982Z,14.11
2023-03-24T02:57:23.642Z,14.11
2023-03-24T02:59:51.631Z,14.10
2023-03-24T03:02:19.378Z,14.09
2023-03-24T03:04:50.313Z,14.08
2023-03-24T03:07:21.876Z,14.07
2023-03-24T03:09:49.531Z,14.05
2023-03-24T03:12:17.306Z,14.03
2023-03-24T03:14:45.157Z,14.02
2023-03-24T03:17:14.674Z,14.00
2023-03-24T03:19:42.530Z,13.96
2023-03-24T03:22:10.297Z,13.94
2023-03-24T03:24:39.392Z,13.92
2023-03-24T03:27:08.499Z,13.91
2023-03-24T03:29:36.164Z,13.89
2023-03-24T03:32:09.775Z,13.88
2023-03-24T03:34:38.056Z,13.87
2023-03-24T03:37:05.803Z,13.86
2023-03-24T03:39:33.568Z,13.85
2023-03-24T03:42:01.332Z,13.85
2023-03-24T03:44:29.086Z,13.84
2023-03-24T03:46:56.957Z,13.83
2023-03-24T03:49:25.952Z,13.83
2023-03-24T03:51:55.858Z,13.83
2023-03-24T03:54:23.521Z,13.83
2023-03-24T03:56:52.445Z,13.83
2023-03-24T03:59:20.177Z,13.83
2023-03-24T04:01:49.111Z,13.82
2023-03-24T04:04:20.439Z,13.82
2023-03-24T04:06:48.178Z,13.82
2023-03-24T04:09:15.851Z,13.82
2023-03-24T04:11:43.616Z,13.81
2023-03-24T04:14:11.369Z,13.81
2023-03-24T04:16:40.215Z,13.81
2023-03-24T04:19:08.025Z,13.81
2023-03-24T04:21:36.514Z,13.80
2023-03-24T04:24:05.394Z,13.81
2023-03-24T04:26:34.558Z,13.80
2023-03-24T04:29:02.356Z,13.80
2023-03-24T04:31:30.119Z,13.80
2023-03-24T04:34:04.233Z,13.80
2023-03-24T04:36:32.123Z,13.80
2023-03-24T04:39:01.910Z,13.80
2023-03-24T04:41:29.577Z,13.79
2023-03-24T04:43:57.450Z,13.80
2023-03-24T04:46:25.137Z,13.80
2023-03-24T04:48:52.866Z,13.80
2023-03-24T04:51:20.834Z,13.79
2023-03-24T04:53:48.504Z,13.79
2023-03-24T04:56:16.690Z,13.80
2023-03-24T04:58:44.336Z,13.79
2023-03-24T05:01:12.127Z,13.79
2023-03-24T05:03:39.992Z,13.79
2023-03-24T05:06:07.833Z,13.78
2023-03-24T05:08:35.797Z,13.78
2023-03-24T05:11:03.457Z,13.78
2023-03-24T05:13:31.528Z,13.78
2023-03-24T05:15:59.269Z,13.79
2023-03-24T05:18:27.058Z,13.79
2023-03-24T05:20:55.049Z,13.79
2023-03-24T05:23:22.800Z,13.79
2023-03-24T05:25:50.408Z,13.80
2023-03-24T05:28:18.110Z,13.80
2023-03-24T05:30:46.022Z,13.80
2023-03-24T05:33:13.803Z,13.80
2023-03-24T05:35:41.632Z,13.80
2023-03-24T05:38:09.271Z,13.79
2023-03-24T05:40:36.933Z,13.78
2023-03-24T05:43:04.593Z,13.78
2023-03-24T05:45:32.255Z,13.77
2023-03-24T05:48:00.066Z,13.76
2023-03-24T05:50:28.095Z,13.75
2023-03-24T05:52:55.965Z,13.74
2023-03-24T05:55:23.719Z,13.74
2023-03-24T05:57:51.387Z,13.72
2023-03-24T06:00:19.249Z,13.72
2023-03-24T06:02:46.989Z,13.71
2023-03-24T06:05:14.983Z,13.70
2023-03-24T06:07:42.756Z,13.70
2023-03-24T06:10:11.640Z,13.70
2023-03-24T06:12:39.432Z,13.69
2023-03-24T06:15:07.280Z,13.69
2023-03-24T06:17:34.949Z,13.68
2023-03-24T06:20:06.032Z,14.20
2023-03-24T06:22:33.845Z,16.77
2023-03-24T06:25:02.727Z,18.44
2023-03-24T06:27:30.490Z,17.81
2023-03-24T06:29:58.258Z,16.90
2023-03-24T06:32:26.145Z,16.29
2023-03-24T06:34:53.889Z,15.89
2023-03-24T06:37:21.567Z,15.61
2023-03-24T06:39:49.962Z,15.38
2023-03-24T06:42:18.717Z,15.18
2023-03-24T06:44:46.891Z,15.00
2023-03-24T06:47:14.656Z,14.85
2023-03-24T06:49:42.319Z,15.21
2023-03-24T06:52:10.084Z,17.63
2023-03-24T06:54:37.851Z,19.14
2023-03-24T06:57:05.941Z,18.40
2023-03-24T06:59:33.679Z,17.37
2023-03-24T07:02:01.583Z,16.69
2023-03-24T07:04:36.610Z,16.24
2023-03-24T07:07:30.842Z,15.90
2023-03-24T07:09:52.316Z,15.59
2023-03-24T07:12:20.046Z,15.38
2023-03-24T07:14:47.812Z,15.19
2023-03-24T07:17:15.984Z,15.58
2023-03-24T07:19:45.693Z,18.11
2023-03-24T07:22:13.354Z,19.74
2023-03-24T07:24:41.226Z,18.92
2023-03-24T07:27:09.400Z,17.80
2023-03-24T07:29:37.158Z,17.04
2023-03-24T07:32:04.922Z,16.51
2023-03-24T07:34:32.692Z,16.13
2023-03-24T07:37:01.841Z,15.84
2023-03-24T07:39:29.955Z,16.17
2023-03-24T07:41:57.622Z,18.53
2023-03-24T07:44:25.383Z,19.92
2023-03-24T07:46:53.050Z,19.10
2023-03-24T07:49:20.823Z,18.05
2023-03-24T07:51:48.588Z,17.31
2023-03-24T07:54:16.241Z,16.78
2023-03-24T07:56:44.159Z,16.37
2023-03-24T07:59:11.990Z,16.56
2023-03-24T08:01:39.898Z,18.76
2023-03-24T08:04:07.860Z,20.11
2023-03-24T08:06:35.672Z,19.28
2023-03-24T08:09:04.561Z,18.24
2023-03-24T08:11:32.223Z,17.50
2023-03-24T08:13:59.986Z,17.00
2023-03-24T08:16:27.680Z,16.64
2023-03-24T08:18:58.392Z,16.37
2023-03-24T08:21:26.466Z,16.12
2023-03-24T08:23:54.143Z,15.91
2023-03-24T08:26:22.903Z,15.72
2023-03-24T08:28:50.975Z,16.11
2023-03-24T08:31:18.657Z,18.59
2023-03-24T08:33:46.522Z,19.97
2023-03-24T08:36:14.196Z,19.12
2023-03-24T08:38:41.929Z,18.13
2023-03-24T08:41:09.590Z,17.46
2023-03-24T08:43:37.924Z,17.02
2023-03-24T08:46:06.353Z,16.71
2023-03-24T08:48:35.052Z,16.48
2023-03-24T08:51:02.795Z,16.27
2023-03-24T08:53:30.867Z,16.11
2023-03-24T08:55:58.473Z,15.95
2023-03-24T08:58:26.187Z,15.83
2023-03-24T09:00:53.848Z,15.74
2023-03-24T09:03:22.830Z,16.36
2023-03-24T09:05:50.809Z,18.94
2023-03-24T09:08:18.574Z,20.07
2023-03-24T09:10:49.881Z,19.21
2023-03-24T09:13:17.685Z,18.28
2023-03-24T09:15:45.770Z,17.66
2023-03-24T09:18:13.637Z,17.27
2023-03-24T09:20:41.283Z,16.99
2023-03-24T09:23:08.946Z,16.79
2023-03-24T09:25:36.717Z,16.62
2023-03-24T09:28:04.389Z,16.48
2023-03-24T09:30:33.943Z,16.37
2023-03-24T09:33:02.932Z,16.26
2023-03-24T09:35:30.978Z,16.18
2023-03-24T09:37:58.712Z,16.11
2023-03-24T09:40:26.470Z,16.05
2023-03-24T09:42:54.233Z,16.01
2023-03-24T09:45:21.998Z,15.97
2023-03-24T09:47:49.811Z,15.95
2023-03-24T09:50:17.630Z,15.94
2023-03-24T09:52:45.498Z,15.94
2023-03-24T09:55:14.602Z,16.58
2023-03-24T09:57:42.253Z,19.19
2023-03-24T10:00:11.147Z,20.39
2023-03-24T10:02:38.976Z,19.63
2023-03-24T10:05:06.775Z,18.89
2023-03-24T10:07:34.744Z,18.45
2023-03-24T10:10:03.330Z,18.16
2023-03-24T10:12:31.606Z,18.02
2023-03-24T10:14:59.369Z,17.93
2023-03-24T10:17:27.165Z,17.89
2023-03-24T10:19:59.626Z,17.82
2023-03-24T10:22:27.680Z,17.75
2023-03-24T10:24:55.341Z,17.67
2023-03-24T10:27:23.107Z,17.61
2023-03-24T10:29:50.981Z,17.55
2023-03-24T10:32:21.002Z,17.51
2023-03-24T10:34:48.767Z,17.49
2023-03-24T10:37:17.750Z,17.48
2023-03-24T10:39:45.558Z,17.50
2023-03-24T10:42:13.380Z,17.49
2023-03-24T10:44:41.553Z,17.49
2023-03-24T10:47:09.420Z,17.46
2023-03-24T10:49:38.207Z,17.44
2023-03-24T10:52:06.279Z,17.43
2023-03-24T10:54:34.046Z,17.41
2023-03-24T10:57:02.793Z,17.39
2023-03-24T10:59:32.359Z,17.37
2023-03-24T11:02:00.672Z,17.35
2023-03-24T11:04:28.887Z,17.32
2023-03-24T11:06:56.576Z,17.32
2023-03-24T11:09:24.318Z,17.31
2023-03-24T11:11:53.713Z,17.30
2023-03-24T11:14:22.569Z,17.32
2023-03-24T11:16:50.328Z,17.31
2023-03-24T11:19:19.279Z,17.31
2023-03-24T11:21:48.764Z,17.32
2023-03-24T11:24:16.424Z,17.36
2023-03-24T11:26:44.106Z,17.43
2023-03-24T11:29:11.852Z,17.51
2023-03-24T11:31:39.617Z,17.60
2023-03-24T11:34:08.814Z,17.69
2023-03-24T11:36:36.475Z,17.79
2023-03-24T11:39:04.236Z,17.88
2023-03-24T11:41:32.120Z,17.99
2023-03-24T11:43:59.879Z,18.11
2023-03-24T11:46:27.874Z,18.23
2023-03-24T11:48:55.808Z,18.33
2023-03-24T11:51:23.469Z,18.40
2023-03-24T11:53:51.135Z,18.47
2023-03-24T11:56:18.997Z,18.53
2023-03-24T11:58:46.617Z,18.60
2023-03-24T12:01:14.321Z,18.65
2023-03-24T12:03:42.201Z,18.70
2023-03-24T12:06:10.166Z,18.73
2023-03-24T12:08:38.950Z,18.77
2023-03-24T12:11:06.573Z,18.79
2023-03-24T12:13:34.271Z,18.84
2023-03-24T12:16:02.039Z,18.87
2023-03-24T12:18:29.900Z,18.89
2023-03-24T12:20:57.665Z,18.92
2023-03-24T12:23:25.531Z,18.95
2023-03-24T12:25:53.194Z,18.97
2023-03-24T12:28:21.058Z,18.99
2023-03-24T12:30:49.083Z,19.01
2023-03-24T12:33:17.099Z,19.01
2023-03-24T12:35:44.780Z,19.00
2023-03-24T12:38:12.522Z,18.99
2023-03-24T12:40:40.392Z,18.98
2023-03-24T12:43:08.050Z,18.97
2023-03-24T12:45:36.053Z,18.96
2023-03-24T12:48:03.811Z,18.96
2023-03-24T12:50:31.545Z,18.97
2023-03-24T12:55:32.606Z,19.01
2023-03-24T12:58:00.471Z,19.02
2023-03-24T13:00:28.133Z,19.03
2023-03-24T13:02:56.026Z,19.06
2023-03-24T13:05:23.880Z,19.07
2023-03-24T13:07:54.393Z,19.08
2023-03-24T13:10:22.178Z,19.09
2023-03-24T13:12:49.825Z,19.10
2023-03-24T13:15:17.590Z,19.11
2023-03-24T13:17:45.341Z,19.13
2023-03-24T13:20:13.765Z,19.15
2023-03-24T13:22:41.597Z,19.17
2023-03-24T13:25:09.362Z,19.20
2023-03-24T13:27:37.024Z,19.23
2023-03-24T13:30:07.398Z,19.27
2023-03-24T13:32:36.606Z,19.31
2023-03-24T13:35:04.361Z,19.37
2023-03-24T13:37:32.180Z,19.44
2023-03-24T13:39:59.836Z,19.50
2023-03-24T13:42:27.611Z,19.55
2023-03-24T13:44:55.367Z,19.59
2023-03-24T13:47:23.237Z,19.65
2023-03-24T13:49:51.204Z,19.73
2023-03-24T13:52:18.864Z,19.82
2023-03-24T13:54:46.715Z,19.93
2023-03-24T13:57:14.397Z,20.03
2023-03-24T13:59:42.157Z,20.12
2023-03-24T14:02:09.890Z,20.21
2023-03-24T14:04:37.891Z,20.28
2023-03-24T14:07:05.553Z,20.36
2023-03-24T14:09:33.314Z,20.42
2023-03-24T14:12:00.981Z,20.48
2023-03-24T14:14:29.456Z,20.52
2023-03-24T14:16:57.219Z,20.56
2023-03-24T14:19:24.984Z,20.58
2023-03-24T14:21:53.471Z,20.56
2023-03-24T14:24:21.330Z,20.53
2023-03-24T14:26:51.141Z,20.51
2023-03-24T14:29:18.811Z,20.46
2023-03-24T14:31:47.839Z,20.43
2023-03-24T14:34:15.568Z,20.41
2023-03-24T14:36:43.728Z,20.37
2023-03-24T14:39:14.672Z,20.34
2023-03-24T14:41:42.543Z,20.30
2023-03-24T14:44:10.510Z,20.26
2023-03-24T14:46:38.602Z,20.21
2023-03-24T14:49:06.344Z,20.17
2023-03-24T14:51:37.182Z,20.12
2023-03-24T14:54:04.946Z,20.07
2023-03-24T14:56:32.639Z,20.01
2023-03-24T14:59:00.372Z,19.95
2023-03-24T15:01:30.593Z,19.88
2023-03-24T15:03:58.375Z,19.81
2023-03-24T15:06:26.222Z,19.74
2023-03-24T15:08:54.003Z,19.66
2023-03-24T15:11:21.754Z,19.59
2023-03-24T15:13:49.525Z,19.53
2023-03-24T15:16:17.834Z,19.47
2023-03-24T15:18:53.940Z,19.42
2023-03-24T15:21:28.164Z,19.36
2023-03-24T15:23:55.929Z,19.31
2023-03-24T15:26:23.695Z,19.28
2023-03-24T15:28:51.565Z,19.24
2023-03-24T15:31:21.117Z,19.20
2023-03-24T15:33:48.937Z,19.17
2023-03-24T15:36:16.901Z,19.13
2023-03-24T15:38:45.587Z,19.10
2023-03-24T15:41:13.232Z,19.06
2023-03-24T15:43:41.304Z,19.02
2023-03-24T15:46:12.392Z,18.98
2023-03-24T15:48:40.902Z,18.96
2023-03-24T15:51:10.050Z,18.93
2023-03-24T15:53:39.556Z,18.90
2023-03-24T15:56:07.525Z,18.87
2023-03-24T15:58:35.893Z,18.83
2023-03-24T16:01:06.798Z,18.81
2023-03-24T16:03:34.674Z,18.78
2023-03-24T16:06:03.620Z,18.75
2023-03-24T16:08:31.355Z,18.71
2023-03-24T16:10:59.123Z,18.69
2023-03-24T16:13:26.761Z,18.66
2023-03-24T16:15:54.442Z,18.63
2023-03-24T16:18:22.208Z,18.62
2023-03-24T16:20:52.013Z,18.58
2023-03-24T16:23:19.780Z,18.55
2023-03-24T16:25:47.552Z,18.52
2023-03-24T16:28:15.209Z,18.49
2023-03-24T16:30:42.966Z,18.46
2023-03-24T16:33:12.780Z,18.43
2023-03-24T16:35:43.433Z,18.41
2023-03-24T16:38:11.283Z,18.38
2023-03-24T16:40:39.169Z,18.36
2023-03-24T16:43:07.026Z,18.33
2023-03-24T16:45:35.805Z,18.31
2023-03-24T16:48:03.615Z,18.28
2023-03-24T16:50:31.331Z,18.25
2023-03-24T16:52:58.997Z,18.22
2023-03-24T16:55:26.770Z,18.21
2023-03-24T16:57:54.524Z,18.18
2023-03-24T17:00:22.903Z,18.16
2023-03-24T17:02:50.709Z,18.14
2023-03-24T17:05:18.439Z,18.12
2023-03-24T17:07:46.405Z,18.10
2023-03-24T17:10:14.269Z,18.08
2023-03-24T17:12:42.644Z,18.06
2023-03-24T17:15:10.512Z,18.04
2023-03-24T17:17:38.257Z,18.02
2023-03-24T17:20:06.090Z,18.01
2023-03-24T17:22:34.007Z,17.99
2023-03-24T17:25:01.772Z,17.97
2023-03-24T17:27:29.534Z,17.95
2023-03-24T17:29:57.202Z,17.93
2023-03-24T17:32:24.932Z,17.91
2023-03-24T17:34:52.745Z,17.89
2023-03-24T17:37:20.489Z,17.88
2023-03-24T17:39:48.254Z,17.85
2023-03-24T17:42:15.917Z,17.84
2023-03-24T17:44:43.575Z,17.83
2023-03-24T17:47:11.544Z,17.81
2023-03-24T17:49:39.658Z,17.80
2023-03-24T17:52:07.381Z,17.79
2023-03-24T17:54:35.001Z,17.77
2023-03-24T17:57:02.718Z,17.75
2023-03-24T17:59:30.694Z,17.73
2023-03-24T18:01:58.332Z,17.72
2023-03-24T18:04:26.159Z,17.69
2023-03-24T18:06:53.961Z,17.68
2023-03-24T18:09:21.828Z,17.66
2023-03-24T18:11:49.594Z,17.63
2023-03-24T18:14:17.366Z,17.61
2023-03-24T18:16:45.106Z,17.59
2023-03-24T18:19:12.888Z,17.56
2023-03-24T18:21:40.849Z,17.54
2023-03-24T18:24:08.998Z,17.53
2023-03-24T18:26:36.901Z,17.51
2023-03-24T18:29:05.892Z,17.51
2023-03-24T18:31:33.781Z,17.49
2023-03-24T18:34:01.514Z,17.48
2023-03-24T18:36:29.409Z,17.45
2023-03-24T18:38:57.965Z,17.44
2023-03-24T18:41:28.802Z,17.43
2023-03-24T18:43:56.771Z,17.41
2023-03-24T18:49:16.695Z,17.39
2023-03-24T18:51:46.379Z,17.37
2023-03-24T18:54:14.147Z,17.36
2023-03-24T18:56:42.013Z,17.36
2023-03-24T18:59:11.911Z,17.35
2023-03-24T19:01:39.844Z,17.34
2023-03-24T19:04:09.461Z,17.34
2023-03-24T19:06:37.370Z,17.33
2023-03-24T19:09:05.757Z,17.32
2023-03-24T19:11:33.412Z,17.30
2023-03-24T19:14:01.173Z,17.28
2023-03-24T19:16:29.182Z,17.26
2023-03-24T19:19:00.304Z,17.25
2023-03-24T19:21:28.055Z,17.24
2023-03-24T19:24:04.319Z,17.21
2023-03-24T19:26:32.184Z,17.18
2023-03-24T19:28:59.948Z,17.14
2023-03-24T19:31:27.870Z,17.09
2023-03-24T19:33:55.682Z,17.06
2023-03-24T19:36:25.601Z,17.01
2023-03-24T19:38:53.772Z,16.96
2023-03-24T19:41:21.540Z,16.91
2023-03-24T19:43:49.302Z,16.88
2023-03-24T19:46:21.045Z,16.84
2023-03-24T19:48:48.928Z,16.81
2023-03-24T19:51:16.790Z,16.77
2023-03-24T19:53:44.488Z,16.74
2023-03-24T19:56:12.319Z,16.72
2023-03-24T19:58:39.981Z,16.69
2023-03-24T20:01:07.742Z,16.66
2023-03-24T20:03:36.687Z,16.63
2023-03-24T20:06:05.227Z,16.60
2023-03-24T20:08:32.967Z,16.57
2023-03-24T20:11:00.769Z,16.52
2023-03-24T20:13:28.510Z,16.49
2023-03-24T20:15:56.300Z,16.45
2023-03-24T20:18:24.140Z,16.40
2023-03-24T20:20:52.210Z,16.35
2023-03-24T20:23:19.980Z,16.30
2023-03-24T20:25:47.719Z,16.24
2023-03-24T20:28:15.912Z,16.19
2023-03-24T20:30:45.417Z,16.15
2023-03-24T20:33:13.167Z,16.10
2023-03-24T20:35:41.158Z,16.07
2023-03-24T20:38:08.921Z,16.04
2023-03-24T20:40:36.575Z,16.01
2023-03-24T20:43:04.244Z,15.98
2023-03-24T20:45:32.027Z,15.94
2023-03-24T20:47:59.794Z,15.91
2023-03-24T20:50:27.839Z,15.89
2023-03-24T20:52:55.806Z,15.86
2023-03-24T20:55:23.465Z,15.83
2023-03-24T20:57:51.134Z,15.82
2023-03-24T21:00:20.426Z,15.79
2023-03-24T21:02:48.263Z,15.76
2023-03-24T21:05:16.261Z,15.74
2023-03-24T21:07:45.700Z,15.71
2023-03-24T21:10:14.526Z,15.69
2023-03-24T21:12:53.078Z,15.66
2023-03-24T21:15:21.996Z,15.63
2023-03-24T21:17:49.811Z,15.60
2023-03-24T21:20:19.233Z,15.58
2023-03-24T21:22:56.426Z,15.56
2023-03-24T21:25:24.182Z,15.55
2023-03-24T21:27:51.946Z,15.53
2023-03-24T21:30:19.609Z,15.52
2023-03-24T21:32:47.738Z,15.51
2023-03-24T21:35:15.547Z,15.48
2023-03-24T21:37:45.771Z,15.47
2023-03-24T21:40:13.846Z,15.46
2023-03-24T21:42:44.371Z,15.45
2023-03-24T21:45:12.953Z,15.43
2023-03-24T21:47:40.643Z,15.41
2023-03-24T21:50:08.501Z,15.40
2023-03-24T21:52:39.381Z,15.38
2023-03-24T21:55:07.047Z,15.36
2023-03-24T21:57:34.743Z,15.33
2023-03-24T22:00:02.507Z,15.31
2023-03-24T22:02:30.496Z,15.29
2023-03-24T22:05:01.822Z,15.28
2023-03-24T22:07:37.706Z,15.26
2023-03-24T22:10:05.958Z,15.25
2023-03-24T22:12:33.627Z,15.23
2023-03-24T22:15:01.481Z,15.23
2023-03-24T22:17:29.262Z,15.21
2023-03-24T22:19:57.011Z,15.21
2023-03-24T22:22:24.775Z,15.21
2023-03-24T22:24:52.435Z,15.21
2023-03-24T22:27:20.199Z,15.20
2023-03-24T22:29:47.965Z,15.19
2023-03-24T22:32:15.763Z,15.19
2023-03-24T22:34:43.493Z,15.17
2023-03-24T22:37:11.112Z,15.15
2023-03-24T22:39:38.813Z,15.13
2023-03-24T22:42:06.680Z,15.10
2023-03-24T22:44:34.340Z,15.08
2023-03-24T22:47:05.075Z,15.06
2023-03-24T22:49:36.937Z,15.03
2023-03-24T22:52:04.804Z,15.00
2023-03-24T22:54:33.186Z,14.98
2023-03-24T22:57:01.090Z,14.96
2023-03-24T22:59:32.494Z,14.94
2023-03-24T23:02:09.366Z,14.92
2023-03-24T23:04:40.680Z,14.91
2023-03-24T23:07:08.797Z,14.89
2023-03-24T23:09:36.764Z,14.87
2023-03-24T23:12:04.732Z,14.85
2023-03-24T23:14:32.600Z,14.82
2023-03-24T23:17:00.364Z,14.78
2023-03-24T23:19:28.440Z,14.77
2023-03-24T23:21:56.529Z,15.22
2023-03-24T23:24:24.168Z,17.75
2023-03-24T23:26:51.931Z,19.54
2023-03-24T23:29:19.594Z,18.99
2023-03-24T23:31:47.286Z,18.03
2023-03-24T23:34:15.018Z,17.40
2023-03-24T23:36:45.164Z,17.01
2023-03-24T23:39:12.902Z,16.72
2023-03-24T23:41:40.669Z,16.50
2023-03-24T23:44:08.344Z,16.31
2023-03-24T23:46:36.306Z,16.14
2023-03-24T23:49:03.962Z,15.99
2023-03-24T23:51:31.731Z,15.86
2023-03-24T23:53:59.700Z,15.73
2023-03-24T23:56:27.502Z,15.62
2023-03-24T23:58:55.224Z,15.51
